Time;durP1;ratioP1;P1;durP2;ratioP2;P2;SDS_P1;SDS_P2;PMS_P1;PMS_P2;Temp;Humidity;BMP_temperature;BMP_pressure;BME280_temperature;BME280_humidity;BME280_pressure;Samples;Min_cycle;Max_cycle;Signal;HPM_P1;HPM_P2
2022/11/20 00:00:00;;;;;;;5.4;5.1;;;;;;;-0.9;100.0;101110;;;;
2022/11/20 00:01:06;;;;;;;5.4;5.1;;;;;;;-1.0;100.0;101110;;;;
2022/11/20 00:02:00;;;;;;;5.4;5.1;;;;;;;-1.0;100.0;101110;;;;
2022/11/20 00:03:00;;;;;;;5.4;5.1;;;;;;;-1.0;100.0;101100;;;;
2022/11/20 00:04:00;;;;;;;5.4;5.1;;;;;;;-1.0;100.0;101100;;;;
2022/11/20 00:05:00;;;;;;;5.4;5.1;;;;;;;-1.0;100.0;101100;;;;
2022/11/20 00:06:01;;;;;;;5.4;5.1;;;;;;;-1.0;100.0;101100;;;;
2022/11/20 00:07:00;;;;;;;5.4;5.1;;;;;;;-1.1;100.0;101090;;;;
2022/11/20 00:08:00;;;;;;;5.4;5.1;;;;;;;-1.1;100.0;101090;;;;
2022/11/20 00:09:01;;;;;;;5.4;5.1;;;;;;;-0.9;100.0;101090;;;;
2022/11/20 00:10:00;;;;;;;5.4;5.1;;;;;;;-0.9;100.0;101090;;;;
2022/11/20 00:11:15;;;;;;;5.4;5.1;;;;;;;-1.0;100.0;101090;;;;
2022/11/20 00:12:00;;;;;;;5.4;5.1;;;;;;;-1.0;100.0;101090;;;;
2022/11/20 00:13:00;;;;;;;5.4;5.1;;;;;;;-1.1;100.0;101090;;;;
2022/11/20 00:14:01;;;;;;;5.4;5.1;;;;;;;-1.1;100.0;101090;;;;
2022/11/20 00:15:00;;;;;;;5.4;5.1;;;;;;;-1.2;100.0;101090;;;;
2022/11/20 00:16:00;;;;;;;5.4;5.1;;;;;;;-1.2;100.0;101090;;;;
2022/11/20 00:17:00;;;;;;;5.4;5.1;;;;;;;-1.2;100.0;101090;;;;
2022/11/20 00:18:00;;;;;;;4.5;4.4;;;;;;;-1.2;100.0;101090;;;;
2022/11/20 00:19:00;;;;;;;4.5;4.4;;;;;;;-1.1;100.0;101090;;;;
2022/11/20 00:20:00;;;;;;;4.5;4.4;;;;;;;-1.1;100.0;101090;;;;
2022/11/20 00:21:01;;;;;;;4.5;4.4;;;;;;;-1.2;100.0;101090;;;;
2022/11/20 00:22:00;;;;;;;4.5;4.4;;;;;;;-1.2;100.0;101090;;;;
2022/11/20 00:23:00;;;;;;;4.5;4.4;;;;;;;-1.1;100.0;101090;;;;
2022/11/20 00:24:00;;;;;;;4.5;4.4;;;;;;;-1.1;100.0;101090;;;;
2022/11/20 00:25:00;;;;;;;4.5;4.4;;;;;;;-1.3;100.0;101080;;;;
2022/11/20 00:26:04;;;;;;;4.5;4.4;;;;;;;-1.3;100.0;101080;;;;
2022/11/20 00:27:00;;;;;;;4.5;4.4;;;;;;;-1.3;100.0;101080;;;;
2022/11/20 00:28:00;;;;;;;4.5;4.4;;;;;;;-1.3;100.0;101080;;;;
2022/11/20 00:29:00;;;;;;;4.5;4.4;;;;;;;-1.4;100.0;101080;;;;
2022/11/20 00:30:00;;;;;;;4.5;4.4;;;;;;;-1.4;100.0;101080;;;;
2022/11/20 00:31:01;;;;;;;4.5;4.4;;;;;;;-1.4;100.0;101080;;;;
2022/11/20 00:32:00;;;;;;;4.5;4.4;;;;;;;-1.4;100.0;101080;;;;
2022/11/20 00:33:00;;;;;;;4.5;4.4;;;;;;;-1.5;100.0;101080;;;;
2022/11/20 00:34:00;;;;;;;4.5;4.4;;;;;;;-1.5;100.0;101080;;;;
2022/11/20 00:35:00;;;;;;;4.5;4.4;;;;;;;-1.5;100.0;101080;;;;
2022/11/20 00:36:04;;;;;;;4.5;4.4;;;;;;;-1.5;100.0;101080;;;;
2022/11/20 00:37:00;;;;;;;4.5;4.4;;;;;;;-1.5;100.0;101080;;;;
2022/11/20 00:38:00;;;;;;;4.6;4.5;;;;;;;-1.5;100.0;101080;;;;
2022/11/20 00:39:00;;;;;;;4.6;4.5;;;;;;;-1.5;100.0;101080;;;;
2022/11/20 00:40:00;;;;;;;4.6;4.5;;;;;;;-1.5;100.0;101080;;;;
2022/11/20 00:41:01;;;;;;;4.6;4.5;;;;;;;-1.6;100.0;101080;;;;
2022/11/20 00:42:00;;;;;;;4.6;4.5;;;;;;;-1.6;100.0;101080;;;;
2022/11/20 00:43:00;;;;;;;4.6;4.5;;;;;;;-1.7;100.0;101070;;;;
2022/11/20 00:44:00;;;;;;;4.6;4.5;;;;;;;-1.7;100.0;101070;;;;
2022/11/20 00:45:00;;;;;;;4.6;4.5;;;;;;;-1.7;100.0;101070;;;;
2022/11/20 00:46:00;;;;;;;4.6;4.5;;;;;;;-1.7;100.0;101070;;;;
2022/11/20 00:47:00;;;;;;;4.6;4.5;;;;;;;-1.7;100.0;101070;;;;
2022/11/20 00:48:00;;;;;;;4.6;4.5;;;;;;;-1.7;100.0;101070;;;;
2022/11/20 00:49:00;;;;;;;4.6;4.5;;;;;;;-1.6;100.0;101080;;;;
2022/11/20 00:50:00;;;;;;;4.6;4.5;;;;;;;-1.6;100.0;101080;;;;
2022/11/20 00:51:00;;;;;;;4.6;4.5;;;;;;;-1.5;100.0;101080;;;;
2022/11/20 00:52:00;;;;;;;4.6;4.5;;;;;;;-1.5;100.0;101080;;;;
2022/11/20 00:53:00;;;;;;;4.6;4.5;;;;;;;-1.5;100.0;101080;;;;
2022/11/20 00:54:01;;;;;;;4.6;4.5;;;;;;;-1.5;100.0;101080;;;;
2022/11/20 00:55:00;;;;;;;4.6;4.5;;;;;;;-1.5;100.0;101070;;;;
2022/11/20 00:56:02;;;;;;;4.6;4.5;;;;;;;-1.5;100.0;101070;;;;
2022/11/20 00:57:00;;;;;;;4.6;4.5;;;;;;;-1.5;100.0;101070;;;;
2022/11/20 00:58:04;;;;;;;4.5;4.4;;;;;;;-1.5;100.0;101070;;;;
2022/11/20 00:59:01;;;;;;;4.5;4.4;;;;;;;-1.7;100.0;101070;;;;
2022/11/20 01:00:00;;;;;;;4.5;4.4;;;;;;;-1.7;100.0;101070;;;;
2022/11/20 01:01:01;;;;;;;4.5;4.4;;;;;;;-1.7;100.0;101070;;;;
2022/11/20 01:02:00;;;;;;;4.5;4.4;;;;;;;-1.7;100.0;101070;;;;
2022/11/20 01:03:00;;;;;;;4.5;4.4;;;;;;;-1.5;100.0;101070;;;;
2022/11/20 01:04:00;;;;;;;4.5;4.4;;;;;;;-1.5;100.0;101070;;;;
2022/11/20 01:05:00;;;;;;;4.5;4.4;;;;;;;-1.6;100.0;101060;;;;
2022/11/20 01:06:01;;;;;;;4.5;4.4;;;;;;;-1.6;100.0;101060;;;;
2022/11/20 01:07:00;;;;;;;4.5;4.4;;;;;;;-1.6;100.0;101060;;;;
2022/11/20 01:08:00;;;;;;;4.5;4.4;;;;;;;-1.6;100.0;101060;;;;
2022/11/20 01:09:02;;;;;;;4.5;4.4;;;;;;;-1.7;100.0;101060;;;;
2022/11/20 01:10:00;;;;;;;4.5;4.4;;;;;;;-1.7;100.0;101060;;;;
2022/11/20 01:11:09;;;;;;;4.5;4.4;;;;;;;-1.6;100.0;101050;;;;
2022/11/20 01:12:00;;;;;;;4.5;4.4;;;;;;;-1.6;100.0;101050;;;;
2022/11/20 01:14:01;;;;;;;4.5;4.4;;;;;;;-1.8;100.0;101060;;;;
2022/11/20 01:15:00;;;;;;;4.5;4.4;;;;;;;-1.7;100.0;101060;;;;
2022/11/20 01:16:10;;;;;;;4.5;4.4;;;;;;;-1.7;100.0;101060;;;;
2022/11/20 01:17:00;;;;;;;4.5;4.4;;;;;;;-1.7;100.0;101060;;;;
2022/11/20 01:18:00;;;;;;;4.4;4.3;;;;;;;-1.7;100.0;101060;;;;
2022/11/20 01:19:01;;;;;;;4.4;4.3;;;;;;;-1.8;100.0;101060;;;;
2022/11/20 01:20:00;;;;;;;4.4;4.3;;;;;;;-1.8;100.0;101060;;;;
2022/11/20 01:21:05;;;;;;;4.4;4.3;;;;;;;-1.8;100.0;101060;;;;
2022/11/20 01:22:00;;;;;;;4.4;4.3;;;;;;;-1.8;100.0;101060;;;;
2022/11/20 01:23:00;;;;;;;4.4;4.3;;;;;;;-1.8;100.0;101050;;;;
2022/11/20 01:24:00;;;;;;;4.4;4.3;;;;;;;-1.8;100.0;101050;;;;
2022/11/20 01:25:00;;;;;;;4.4;4.3;;;;;;;-1.7;100.0;101050;;;;
2022/11/20 01:26:01;;;;;;;4.4;4.3;;;;;;;-1.7;100.0;101050;;;;
2022/11/20 01:27:00;;;;;;;4.4;4.3;;;;;;;-1.7;100.0;101060;;;;
2022/11/20 01:28:00;;;;;;;4.4;4.3;;;;;;;-1.7;100.0;101060;;;;
2022/11/20 01:29:01;;;;;;;4.4;4.3;;;;;;;-1.6;100.0;101060;;;;
2022/11/20 01:30:01;;;;;;;4.4;4.3;;;;;;;-1.6;100.0;101060;;;;
2022/11/20 01:31:00;;;;;;;4.4;4.3;;;;;;;-1.7;100.0;101060;;;;
2022/11/20 01:32:00;;;;;;;4.4;4.3;;;;;;;-1.7;100.0;101060;;;;
2022/11/20 01:33:00;;;;;;;4.4;4.3;;;;;;;-2.0;100.0;101060;;;;
2022/11/20 01:34:05;;;;;;;4.4;4.3;;;;;;;-2.0;100.0;101060;;;;
2022/11/20 01:35:00;;;;;;;4.4;4.3;;;;;;;-1.9;100.0;101060;;;;
2022/11/20 01:36:04;;;;;;;4.4;4.3;;;;;;;-1.9;100.0;101060;;;;
2022/11/20 01:37:00;;;;;;;4.4;4.3;;;;;;;-1.8;100.0;101070;;;;
2022/11/20 01:38:00;;;;;;;4.4;4.3;;;;;;;-1.8;100.0;101070;;;;
2022/11/20 01:39:01;;;;;;;4.4;4.3;;;;;;;-1.8;100.0;101060;;;;
2022/11/20 01:40:00;;;;;;;4.4;4.3;;;;;;;-1.8;100.0;101060;;;;
2022/11/20 01:41:00;;;;;;;4.4;4.3;;;;;;;-1.6;100.0;101070;;;;
2022/11/20 01:44:00;;;;;;;4.4;4.3;;;;;;;-1.6;100.0;101070;;;;
2022/11/20 01:45:00;;;;;;;4.4;4.3;;;;;;;-1.6;100.0;101070;;;;
2022/11/20 01:46:03;;;;;;;4.4;4.3;;;;;;;-1.6;100.0;101070;;;;
2022/11/20 01:47:02;;;;;;;4.4;4.3;;;;;;;-1.5;100.0;101060;;;;
2022/11/20 01:48:00;;;;;;;4.4;4.3;;;;;;;-1.5;100.0;101060;;;;
2022/11/20 01:49:02;;;;;;;4.4;4.3;;;;;;;-1.6;100.0;101060;;;;
2022/11/20 01:50:00;;;;;;;4.4;4.3;;;;;;;-1.6;100.0;101060;;;;
2022/11/20 01:51:00;;;;;;;4.4;4.3;;;;;;;-1.5;100.0;101070;;;;
2022/11/20 01:52:04;;;;;;;4.4;4.3;;;;;;;-1.5;100.0;101070;;;;
2022/11/20 01:53:02;;;;;;;4.4;4.3;;;;;;;-1.7;100.0;101060;;;;
2022/11/20 01:54:04;;;;;;;4.4;4.3;;;;;;;-1.7;100.0;101060;;;;
2022/11/20 01:55:03;;;;;;;4.4;4.3;;;;;;;-1.7;100.0;101060;;;;
2022/11/20 01:56:01;;;;;;;4.4;4.3;;;;;;;-1.7;100.0;101060;;;;
2022/11/20 01:57:00;;;;;;;5.0;4.8;;;;;;;-1.6;100.0;101060;;;;
2022/11/20 01:58:01;;;;;;;5.0;4.8;;;;;;;-1.6;100.0;101060;;;;
2022/11/20 01:59:01;;;;;;;5.0;4.8;;;;;;;-1.7;100.0;101060;;;;
2022/11/20 02:00:03;;;;;;;5.0;4.8;;;;;;;-1.7;100.0;101060;;;;
2022/11/20 02:01:00;;;;;;;5.0;4.8;;;;;;;-1.5;100.0;101070;;;;
2022/11/20 02:02:00;;;;;;;5.0;4.8;;;;;;;-1.5;100.0;101070;;;;
2022/11/20 02:03:01;;;;;;;5.0;4.8;;;;;;;-1.6;100.0;101070;;;;
2022/11/20 02:04:00;;;;;;;5.0;4.8;;;;;;;-1.6;100.0;101070;;;;
2022/11/20 02:05:02;;;;;;;5.0;4.8;;;;;;;-1.5;100.0;101070;;;;
2022/11/20 02:06:10;;;;;;;5.0;4.8;;;;;;;-1.5;100.0;101070;;;;
2022/11/20 02:07:01;;;;;;;5.0;4.8;;;;;;;-1.6;100.0;101070;;;;
2022/11/20 02:08:00;;;;;;;5.0;4.8;;;;;;;-1.6;100.0;101070;;;;
2022/11/20 02:09:00;;;;;;;5.0;4.8;;;;;;;-1.6;100.0;101070;;;;
2022/11/20 02:10:00;;;;;;;5.0;4.8;;;;;;;-1.6;100.0;101070;;;;
2022/11/20 02:11:00;;;;;;;5.0;4.8;;;;;;;-1.6;100.0;101060;;;;
2022/11/20 02:12:00;;;;;;;5.0;4.8;;;;;;;-1.6;100.0;101060;;;;
2022/11/20 02:14:00;;;;;;;5.0;4.8;;;;;;;-1.6;100.0;101060;;;;
2022/11/20 02:15:00;;;;;;;5.0;4.8;;;;;;;-1.8;100.0;101060;;;;
2022/11/20 02:16:00;;;;;;;5.0;4.8;;;;;;;-1.8;100.0;101060;;;;
2022/11/20 02:17:00;;;;;;;4.7;4.6;;;;;;;-1.7;100.0;101060;;;;
2022/11/20 02:18:00;;;;;;;4.7;4.6;;;;;;;-1.7;100.0;101060;;;;
2022/11/20 02:19:01;;;;;;;4.7;4.6;;;;;;;-1.8;100.0;101060;;;;
2022/11/20 02:20:00;;;;;;;4.7;4.6;;;;;;;-1.8;100.0;101060;;;;
2022/11/20 02:21:05;;;;;;;4.7;4.6;;;;;;;-1.9;100.0;101060;;;;
2022/11/20 02:22:05;;;;;;;4.7;4.6;;;;;;;-1.9;100.0;101060;;;;
2022/11/20 02:23:04;;;;;;;4.7;4.6;;;;;;;-2.0;100.0;101060;;;;
2022/11/20 02:24:09;;;;;;;4.7;4.6;;;;;;;-2.0;100.0;101060;;;;
2022/11/20 02:25:02;;;;;;;4.7;4.6;;;;;;;-1.9;100.0;101060;;;;
2022/11/20 02:26:02;;;;;;;4.7;4.6;;;;;;;-1.9;100.0;101060;;;;
2022/11/20 02:27:02;;;;;;;4.7;4.6;;;;;;;-2.0;100.0;101060;;;;
2022/11/20 02:28:00;;;;;;;4.7;4.6;;;;;;;-2.0;100.0;101060;;;;
2022/11/20 02:29:01;;;;;;;4.7;4.6;;;;;;;-1.9;100.0;101060;;;;
2022/11/20 02:30:01;;;;;;;4.7;4.6;;;;;;;-1.9;100.0;101060;;;;
2022/11/20 02:31:00;;;;;;;4.7;4.6;;;;;;;-1.6;100.0;101060;;;;
2022/11/20 02:32:01;;;;;;;4.7;4.6;;;;;;;-1.6;100.0;101060;;;;
2022/11/20 02:33:00;;;;;;;4.7;4.6;;;;;;;-1.9;100.0;101050;;;;
2022/11/20 02:34:00;;;;;;;4.7;4.6;;;;;;;-1.9;100.0;101050;;;;
2022/11/20 02:35:08;;;;;;;4.7;4.6;;;;;;;-1.8;100.0;101050;;;;
2022/11/20 02:36:00;;;;;;;4.7;4.6;;;;;;;-1.8;100.0;101050;;;;
2022/11/20 02:37:00;;;;;;;4.5;4.4;;;;;;;-1.8;100.0;101050;;;;
2022/11/20 02:38:01;;;;;;;4.5;4.4;;;;;;;-1.8;100.0;101050;;;;
2022/11/20 02:39:00;;;;;;;4.5;4.4;;;;;;;-1.7;100.0;101050;;;;
2022/11/20 02:40:00;;;;;;;4.5;4.4;;;;;;;-1.7;100.0;101050;;;;
2022/11/20 02:41:00;;;;;;;4.5;4.4;;;;;;;-1.7;100.0;101050;;;;
2022/11/20 02:42:00;;;;;;;4.5;4.4;;;;;;;-1.7;100.0;101050;;;;
2022/11/20 02:43:00;;;;;;;4.5;4.4;;;;;;;-1.9;100.0;101040;;;;
2022/11/20 02:44:00;;;;;;;4.5;4.4;;;;;;;-1.9;100.0;101040;;;;
2022/11/20 02:45:00;;;;;;;4.5;4.4;;;;;;;-1.9;100.0;101040;;;;
2022/11/20 02:46:00;;;;;;;4.5;4.4;;;;;;;-1.9;100.0;101040;;;;
2022/11/20 02:47:00;;;;;;;4.5;4.4;;;;;;;-1.9;100.0;101040;;;;
2022/11/20 02:48:00;;;;;;;4.5;4.4;;;;;;;-1.9;100.0;101040;;;;
2022/11/20 02:49:01;;;;;;;4.5;4.4;;;;;;;-1.8;100.0;101050;;;;
2022/11/20 02:50:00;;;;;;;4.5;4.4;;;;;;;-1.8;100.0;101050;;;;
2022/11/20 02:51:00;;;;;;;4.5;4.4;;;;;;;-1.8;100.0;101050;;;;
2022/11/20 02:52:00;;;;;;;4.5;4.4;;;;;;;-1.8;100.0;101050;;;;
2022/11/20 02:53:00;;;;;;;4.5;4.4;;;;;;;-1.8;100.0;101050;;;;
2022/11/20 02:54:00;;;;;;;4.5;4.4;;;;;;;-1.8;100.0;101050;;;;
2022/11/20 02:55:00;;;;;;;4.5;4.4;;;;;;;-1.9;100.0;101050;;;;
2022/11/20 02:56:00;;;;;;;4.5;4.4;;;;;;;-1.9;100.0;101050;;;;
2022/11/20 02:57:00;;;;;;;4.3;4.2;;;;;;;-1.8;100.0;101050;;;;
2022/11/20 02:58:00;;;;;;;4.3;4.2;;;;;;;-1.8;100.0;101050;;;;
2022/11/20 02:59:00;;;;;;;4.3;4.2;;;;;;;-2.0;100.0;101050;;;;
2022/11/20 03:00:00;;;;;;;4.3;4.2;;;;;;;-2.0;100.0;101050;;;;
2022/11/20 03:01:00;;;;;;;4.3;4.2;;;;;;;-2.0;100.0;101050;;;;
2022/11/20 03:02:00;;;;;;;4.3;4.2;;;;;;;-2.0;100.0;101050;;;;
2022/11/20 03:03:00;;;;;;;4.3;4.2;;;;;;;-2.0;100.0;101050;;;;
2022/11/20 03:04:00;;;;;;;4.3;4.2;;;;;;;-2.0;100.0;101050;;;;
2022/11/20 03:05:00;;;;;;;4.3;4.2;;;;;;;-1.9;100.0;101050;;;;
2022/11/20 03:06:00;;;;;;;4.3;4.2;;;;;;;-1.9;100.0;101050;;;;
2022/11/20 03:07:00;;;;;;;4.3;4.2;;;;;;;-2.1;100.0;101050;;;;
2022/11/20 03:08:00;;;;;;;4.3;4.2;;;;;;;-2.1;100.0;101050;;;;
2022/11/20 03:09:00;;;;;;;4.3;4.2;;;;;;;-2.2;100.0;101050;;;;
2022/11/20 03:10:00;;;;;;;4.3;4.2;;;;;;;-2.2;100.0;101050;;;;
2022/11/20 03:11:04;;;;;;;4.3;4.2;;;;;;;-2.0;100.0;101050;;;;
2022/11/20 03:12:00;;;;;;;4.3;4.2;;;;;;;-2.0;100.0;101050;;;;
2022/11/20 03:13:00;;;;;;;4.3;4.2;;;;;;;-2.1;100.0;101040;;;;
2022/11/20 03:14:02;;;;;;;4.3;4.2;;;;;;;-2.1;100.0;101040;;;;
2022/11/20 03:15:00;;;;;;;4.3;4.2;;;;;;;-2.1;100.0;101040;;;;
2022/11/20 03:16:08;;;;;;;4.3;4.2;;;;;;;-2.1;100.0;101040;;;;
2022/11/20 03:17:00;;;;;;;4.3;4.2;;;;;;;-2.0;100.0;101040;;;;
2022/11/20 03:18:00;;;;;;;4.3;4.2;;;;;;;-2.0;100.0;101040;;;;
2022/11/20 03:19:00;;;;;;;4.3;4.2;;;;;;;-2.0;100.0;101040;;;;
2022/11/20 03:20:00;;;;;;;4.3;4.2;;;;;;;-2.0;100.0;101040;;;;
2022/11/20 03:21:00;;;;;;;4.3;4.2;;;;;;;-1.9;100.0;101050;;;;
2022/11/20 03:22:00;;;;;;;4.3;4.2;;;;;;;-1.9;100.0;101050;;;;
2022/11/20 03:23:00;;;;;;;4.3;4.2;;;;;;;-2.0;100.0;101050;;;;
2022/11/20 03:24:00;;;;;;;4.3;4.2;;;;;;;-2.0;100.0;101050;;;;
2022/11/20 03:25:00;;;;;;;4.3;4.2;;;;;;;-2.1;100.0;101040;;;;
2022/11/20 03:26:10;;;;;;;4.3;4.2;;;;;;;-2.1;100.0;101040;;;;
2022/11/20 03:27:00;;;;;;;4.3;4.2;;;;;;;-2.0;100.0;101040;;;;
2022/11/20 03:28:00;;;;;;;4.3;4.2;;;;;;;-2.0;100.0;101040;;;;
2022/11/20 03:29:02;;;;;;;4.3;4.2;;;;;;;-2.1;100.0;101040;;;;
2022/11/20 03:30:00;;;;;;;4.3;4.2;;;;;;;-2.1;100.0;101040;;;;
2022/11/20 03:31:05;;;;;;;4.3;4.2;;;;;;;-2.1;100.0;101040;;;;
2022/11/20 03:32:00;;;;;;;4.3;4.2;;;;;;;-2.1;100.0;101040;;;;
2022/11/20 03:33:00;;;;;;;4.3;4.2;;;;;;;-2.1;100.0;101030;;;;
2022/11/20 03:34:00;;;;;;;4.3;4.2;;;;;;;-2.1;100.0;101030;;;;
2022/11/20 03:35:00;;;;;;;4.3;4.2;;;;;;;-2.0;100.0;101030;;;;
2022/11/20 03:36:02;;;;;;;4.3;4.2;;;;;;;-2.0;100.0;101030;;;;
2022/11/20 03:37:00;;;;;;;4.8;4.6;;;;;;;-2.0;100.0;101040;;;;
2022/11/20 03:38:00;;;;;;;4.8;4.6;;;;;;;-2.0;100.0;101040;;;;
2022/11/20 03:39:00;;;;;;;4.8;4.6;;;;;;;-2.0;100.0;101030;;;;
2022/11/20 03:40:00;;;;;;;4.8;4.6;;;;;;;-2.0;100.0;101030;;;;
2022/11/20 03:41:01;;;;;;;4.8;4.6;;;;;;;-2.1;100.0;101020;;;;
2022/11/20 03:42:00;;;;;;;4.8;4.6;;;;;;;-2.1;100.0;101020;;;;
2022/11/20 03:43:00;;;;;;;4.8;4.6;;;;;;;-2.0;100.0;101020;;;;
2022/11/20 03:44:01;;;;;;;4.8;4.6;;;;;;;-2.0;100.0;101020;;;;
2022/11/20 03:45:00;;;;;;;4.8;4.6;;;;;;;-2.1;100.0;101010;;;;
2022/11/20 03:46:00;;;;;;;4.8;4.6;;;;;;;-2.1;100.0;101010;;;;
2022/11/20 03:47:00;;;;;;;4.8;4.6;;;;;;;-2.2;100.0;101020;;;;
2022/11/20 03:48:00;;;;;;;4.8;4.6;;;;;;;-2.2;100.0;101020;;;;
2022/11/20 03:49:00;;;;;;;4.8;4.6;;;;;;;-2.2;100.0;101020;;;;
2022/11/20 03:50:00;;;;;;;4.8;4.6;;;;;;;-2.2;100.0;101020;;;;
2022/11/20 03:51:10;;;;;;;4.8;4.6;;;;;;;-2.2;100.0;101020;;;;
2022/11/20 03:52:00;;;;;;;4.8;4.6;;;;;;;-2.2;100.0;101020;;;;
2022/11/20 03:53:00;;;;;;;4.8;4.6;;;;;;;-2.3;100.0;101020;;;;
2022/11/20 03:54:01;;;;;;;4.8;4.6;;;;;;;-2.3;100.0;101020;;;;
2022/11/20 03:55:00;;;;;;;4.8;4.6;;;;;;;-2.3;100.0;101020;;;;
2022/11/20 03:56:00;;;;;;;4.8;4.6;;;;;;;-2.3;100.0;101020;;;;
2022/11/20 03:57:00;;;;;;;4.4;4.3;;;;;;;-2.2;100.0;101020;;;;
2022/11/20 03:58:00;;;;;;;4.4;4.3;;;;;;;-2.2;100.0;101020;;;;
2022/11/20 03:59:00;;;;;;;4.4;4.3;;;;;;;-2.2;100.0;101010;;;;
2022/11/20 04:00:00;;;;;;;4.4;4.3;;;;;;;-2.2;100.0;101010;;;;
2022/11/20 04:01:04;;;;;;;4.4;4.3;;;;;;;-2.3;100.0;101000;;;;
2022/11/20 04:02:00;;;;;;;4.4;4.3;;;;;;;-2.3;100.0;101000;;;;
2022/11/20 04:03:00;;;;;;;4.4;4.3;;;;;;;-2.4;100.0;100990;;;;
2022/11/20 04:04:00;;;;;;;4.4;4.3;;;;;;;-2.4;100.0;100990;;;;
2022/11/20 04:05:00;;;;;;;4.4;4.3;;;;;;;-2.5;100.0;100990;;;;
2022/11/20 04:06:02;;;;;;;4.4;4.3;;;;;;;-2.5;100.0;100990;;;;
2022/11/20 04:07:00;;;;;;;4.4;4.3;;;;;;;-2.4;100.0;100990;;;;
2022/11/20 04:08:00;;;;;;;4.4;4.3;;;;;;;-2.4;100.0;100990;;;;
2022/11/20 04:09:00;;;;;;;4.4;4.3;;;;;;;-2.4;100.0;100990;;;;
2022/11/20 04:10:00;;;;;;;4.4;4.3;;;;;;;-2.4;100.0;100990;;;;
2022/11/20 04:11:10;;;;;;;4.4;4.3;;;;;;;-2.4;100.0;100980;;;;
2022/11/20 04:12:00;;;;;;;4.4;4.3;;;;;;;-2.4;100.0;100980;;;;
2022/11/20 04:13:00;;;;;;;4.4;4.3;;;;;;;-2.5;100.0;100980;;;;
2022/11/20 04:14:01;;;;;;;4.4;4.3;;;;;;;-2.5;100.0;100980;;;;
2022/11/20 04:15:00;;;;;;;4.4;4.3;;;;;;;-2.4;100.0;100990;;;;
2022/11/20 04:16:00;;;;;;;4.4;4.3;;;;;;;-2.4;100.0;100990;;;;
2022/11/20 04:17:00;;;;;;;5.7;5.5;;;;;;;-2.5;100.0;100980;;;;
2022/11/20 04:18:00;;;;;;;5.7;5.5;;;;;;;-2.5;100.0;100980;;;;
2022/11/20 04:19:01;;;;;;;5.7;5.5;;;;;;;-2.5;100.0;100980;;;;
2022/11/20 04:20:00;;;;;;;5.7;5.5;;;;;;;-2.5;100.0;100980;;;;
2022/11/20 04:21:00;;;;;;;5.7;5.5;;;;;;;-2.4;100.0;100990;;;;
2022/11/20 04:22:00;;;;;;;5.7;5.5;;;;;;;-2.4;100.0;100990;;;;
2022/11/20 04:23:00;;;;;;;5.7;5.5;;;;;;;-2.5;100.0;101000;;;;
2022/11/20 04:24:00;;;;;;;5.7;5.5;;;;;;;-2.5;100.0;101000;;;;
2022/11/20 04:25:00;;;;;;;5.7;5.5;;;;;;;-2.4;100.0;101000;;;;
2022/11/20 04:26:01;;;;;;;5.7;5.5;;;;;;;-2.4;100.0;101000;;;;
2022/11/20 04:27:00;;;;;;;5.7;5.5;;;;;;;-2.3;100.0;100990;;;;
2022/11/20 04:28:00;;;;;;;5.7;5.5;;;;;;;-2.3;100.0;100990;;;;
2022/11/20 04:29:01;;;;;;;5.7;5.5;;;;;;;-2.3;100.0;101000;;;;
2022/11/20 04:30:00;;;;;;;5.7;5.5;;;;;;;-2.3;100.0;101000;;;;
2022/11/20 04:31:08;;;;;;;5.7;5.5;;;;;;;-2.2;100.0;100990;;;;
2022/11/20 04:32:00;;;;;;;5.7;5.5;;;;;;;-2.2;100.0;100990;;;;
2022/11/20 04:33:00;;;;;;;5.7;5.5;;;;;;;-2.3;100.0;100990;;;;
2022/11/20 04:34:02;;;;;;;5.7;5.5;;;;;;;-2.3;100.0;100990;;;;
2022/11/20 04:35:00;;;;;;;5.7;5.5;;;;;;;-2.4;100.0;100990;;;;
2022/11/20 04:36:01;;;;;;;5.7;5.5;;;;;;;-2.4;100.0;100990;;;;
2022/11/20 04:37:00;;;;;;;4.4;4.3;;;;;;;-2.6;100.0;100990;;;;
2022/11/20 04:38:00;;;;;;;4.4;4.3;;;;;;;-2.6;100.0;100990;;;;
2022/11/20 04:39:02;;;;;;;4.4;4.3;;;;;;;-2.5;100.0;101000;;;;
2022/11/20 04:40:00;;;;;;;4.4;4.3;;;;;;;-2.5;100.0;101000;;;;
2022/11/20 04:41:00;;;;;;;4.4;4.3;;;;;;;-2.4;100.0;100990;;;;
2022/11/20 04:43:00;;;;;;;4.4;4.3;;;;;;;-2.4;100.0;100990;;;;
2022/11/20 04:44:03;;;;;;;4.4;4.3;;;;;;;-2.4;100.0;100990;;;;
2022/11/20 04:45:00;;;;;;;4.4;4.3;;;;;;;-2.6;100.0;100990;;;;
2022/11/20 04:46:00;;;;;;;4.4;4.3;;;;;;;-2.6;100.0;100990;;;;
2022/11/20 04:47:00;;;;;;;4.4;4.3;;;;;;;-2.7;100.0;100990;;;;
2022/11/20 04:48:00;;;;;;;4.4;4.3;;;;;;;-2.7;100.0;100990;;;;
2022/11/20 04:49:00;;;;;;;4.4;4.3;;;;;;;-2.5;100.0;100990;;;;
2022/11/20 04:50:00;;;;;;;4.4;4.3;;;;;;;-2.5;100.0;100990;;;;
2022/11/20 04:51:02;;;;;;;4.4;4.3;;;;;;;-2.5;100.0;100990;;;;
2022/11/20 04:52:00;;;;;;;4.4;4.3;;;;;;;-2.5;100.0;100990;;;;
2022/11/20 04:53:00;;;;;;;4.4;4.3;;;;;;;-2.4;100.0;100990;;;;
2022/11/20 04:54:00;;;;;;;4.4;4.3;;;;;;;-2.4;100.0;100990;;;;
2022/11/20 04:55:00;;;;;;;4.4;4.3;;;;;;;-2.5;100.0;100990;;;;
2022/11/20 04:56:02;;;;;;;4.7;4.6;;;;;;;-2.5;100.0;100990;;;;
2022/11/20 04:57:00;;;;;;;4.7;4.6;;;;;;;-2.5;100.0;100980;;;;
2022/11/20 04:58:00;;;;;;;4.7;4.6;;;;;;;-2.5;100.0;100980;;;;
2022/11/20 04:59:01;;;;;;;4.7;4.6;;;;;;;-2.5;100.0;100980;;;;
2022/11/20 05:00:00;;;;;;;4.7;4.6;;;;;;;-2.5;100.0;100980;;;;
2022/11/20 05:01:01;;;;;;;4.7;4.6;;;;;;;-2.5;100.0;100980;;;;
2022/11/20 05:02:00;;;;;;;4.7;4.6;;;;;;;-2.5;100.0;100980;;;;
2022/11/20 05:03:00;;;;;;;4.7;4.6;;;;;;;-2.5;100.0;100980;;;;
2022/11/20 05:04:00;;;;;;;4.7;4.6;;;;;;;-2.5;100.0;100980;;;;
2022/11/20 05:05:00;;;;;;;4.7;4.6;;;;;;;-2.6;100.0;100980;;;;
2022/11/20 05:06:01;;;;;;;4.7;4.6;;;;;;;-2.6;100.0;100980;;;;
2022/11/20 05:07:00;;;;;;;4.7;4.6;;;;;;;-2.6;100.0;100980;;;;
2022/11/20 05:08:00;;;;;;;4.7;4.6;;;;;;;-2.6;100.0;100980;;;;
2022/11/20 05:09:00;;;;;;;4.7;4.6;;;;;;;-2.8;100.0;100980;;;;
2022/11/20 05:10:00;;;;;;;4.7;4.6;;;;;;;-2.8;100.0;100980;;;;
2022/11/20 05:11:04;;;;;;;4.7;4.6;;;;;;;-2.8;100.0;100980;;;;
2022/11/20 05:12:00;;;;;;;4.7;4.6;;;;;;;-2.8;100.0;100980;;;;
2022/11/20 05:13:00;;;;;;;4.7;4.6;;;;;;;-2.6;100.0;100980;;;;
2022/11/20 05:14:00;;;;;;;4.7;4.6;;;;;;;-2.6;100.0;100980;;;;
2022/11/20 05:15:00;;;;;;;4.7;4.6;;;;;;;-2.6;100.0;100980;;;;
2022/11/20 05:16:02;;;;;;;4.7;4.6;;;;;;;-2.6;100.0;100980;;;;
2022/11/20 05:17:00;;;;;;;4.7;4.6;;;;;;;-2.7;100.0;100970;;;;
2022/11/20 05:18:00;;;;;;;4.7;4.6;;;;;;;-2.7;100.0;100970;;;;
2022/11/20 05:19:00;;;;;;;4.7;4.6;;;;;;;-2.6;100.0;100970;;;;
2022/11/20 05:20:00;;;;;;;4.7;4.6;;;;;;;-2.6;100.0;100970;;;;
2022/11/20 05:21:00;;;;;;;4.7;4.6;;;;;;;-2.5;100.0;100970;;;;
2022/11/20 05:22:00;;;;;;;4.7;4.6;;;;;;;-2.5;100.0;100970;;;;
2022/11/20 05:23:00;;;;;;;4.7;4.6;;;;;;;-2.6;100.0;100960;;;;
2022/11/20 05:24:00;;;;;;;4.7;4.6;;;;;;;-2.6;100.0;100960;;;;
2022/11/20 05:25:00;;;;;;;4.7;4.6;;;;;;;-2.8;100.0;100960;;;;
2022/11/20 05:26:00;;;;;;;4.7;4.6;;;;;;;-2.8;100.0;100960;;;;
2022/11/20 05:27:00;;;;;;;4.7;4.6;;;;;;;-2.8;100.0;100950;;;;
2022/11/20 05:28:00;;;;;;;4.7;4.6;;;;;;;-2.8;100.0;100950;;;;
2022/11/20 05:29:00;;;;;;;4.7;4.6;;;;;;;-2.7;100.0;100960;;;;
2022/11/20 05:30:00;;;;;;;4.7;4.6;;;;;;;-2.7;100.0;100960;;;;
2022/11/20 05:31:04;;;;;;;4.7;4.6;;;;;;;-2.6;100.0;100960;;;;
2022/11/20 05:32:00;;;;;;;4.7;4.6;;;;;;;-2.6;100.0;100960;;;;
2022/11/20 05:33:00;;;;;;;4.7;4.6;;;;;;;-2.6;100.0;100960;;;;
2022/11/20 05:34:00;;;;;;;4.7;4.6;;;;;;;-2.6;100.0;100960;;;;
2022/11/20 05:35:00;;;;;;;4.7;4.6;;;;;;;-2.5;100.0;100960;;;;
2022/11/20 05:36:00;;;;;;;4.8;4.7;;;;;;;-2.5;100.0;100960;;;;
2022/11/20 05:37:00;;;;;;;4.8;4.7;;;;;;;-2.5;100.0;100960;;;;
2022/11/20 05:38:00;;;;;;;4.8;4.7;;;;;;;-2.5;100.0;100960;;;;
2022/11/20 05:39:02;;;;;;;4.8;4.7;;;;;;;-2.7;100.0;100960;;;;
2022/11/20 05:40:00;;;;;;;4.8;4.7;;;;;;;-2.7;100.0;100960;;;;
2022/11/20 05:41:09;;;;;;;4.8;4.7;;;;;;;-2.6;100.0;100960;;;;
2022/11/20 05:43:00;;;;;;;4.8;4.7;;;;;;;-2.6;100.0;100950;;;;
2022/11/20 05:44:00;;;;;;;4.8;4.7;;;;;;;-2.6;100.0;100950;;;;
2022/11/20 05:45:01;;;;;;;4.8;4.7;;;;;;;-2.5;100.0;100950;;;;
2022/11/20 05:46:00;;;;;;;4.8;4.7;;;;;;;-2.5;100.0;100950;;;;
2022/11/20 05:47:00;;;;;;;4.8;4.7;;;;;;;-2.4;100.0;100950;;;;
2022/11/20 05:48:00;;;;;;;4.8;4.7;;;;;;;-2.4;100.0;100950;;;;
2022/11/20 05:49:00;;;;;;;4.8;4.7;;;;;;;-2.4;100.0;100950;;;;
2022/11/20 05:50:00;;;;;;;4.8;4.7;;;;;;;-2.4;100.0;100950;;;;
2022/11/20 05:51:01;;;;;;;4.8;4.7;;;;;;;-2.4;100.0;100950;;;;
2022/11/20 05:52:00;;;;;;;4.8;4.7;;;;;;;-2.4;100.0;100950;;;;
2022/11/20 05:53:00;;;;;;;4.8;4.7;;;;;;;-2.4;100.0;100960;;;;
2022/11/20 05:54:00;;;;;;;4.8;4.7;;;;;;;-2.4;100.0;100960;;;;
2022/11/20 05:55:00;;;;;;;4.8;4.7;;;;;;;-2.3;100.0;100960;;;;
2022/11/20 05:56:02;;;;;;;4.8;4.7;;;;;;;-2.3;100.0;100960;;;;
2022/11/20 05:57:00;;;;;;;4.8;4.7;;;;;;;-2.3;100.0;100960;;;;
2022/11/20 05:58:00;;;;;;;4.8;4.7;;;;;;;-2.3;100.0;100960;;;;
2022/11/20 05:59:00;;;;;;;4.8;4.7;;;;;;;-2.3;100.0;100960;;;;
2022/11/20 06:00:00;;;;;;;4.8;4.7;;;;;;;-2.3;100.0;100960;;;;
2022/11/20 06:01:09;;;;;;;4.8;4.7;;;;;;;-2.3;100.0;100960;;;;
2022/11/20 06:02:00;;;;;;;4.8;4.7;;;;;;;-2.3;100.0;100960;;;;
2022/11/20 06:03:00;;;;;;;4.8;4.7;;;;;;;-2.3;100.0;100970;;;;
2022/11/20 06:04:00;;;;;;;4.8;4.7;;;;;;;-2.3;100.0;100970;;;;
2022/11/20 06:05:00;;;;;;;4.8;4.7;;;;;;;-2.4;100.0;100970;;;;
2022/11/20 06:06:01;;;;;;;4.8;4.7;;;;;;;-2.4;100.0;100970;;;;
2022/11/20 06:07:00;;;;;;;4.8;4.7;;;;;;;-2.3;100.0;100970;;;;
2022/11/20 06:08:00;;;;;;;4.8;4.7;;;;;;;-2.3;100.0;100970;;;;
2022/11/20 06:09:00;;;;;;;4.8;4.7;;;;;;;-2.2;100.0;100970;;;;
2022/11/20 06:10:00;;;;;;;4.8;4.7;;;;;;;-2.2;100.0;100970;;;;
2022/11/20 06:11:04;;;;;;;4.8;4.7;;;;;;;-2.1;100.0;100970;;;;
2022/11/20 06:12:00;;;;;;;4.8;4.7;;;;;;;-2.1;100.0;100970;;;;
2022/11/20 06:13:00;;;;;;;4.8;4.7;;;;;;;-2.1;100.0;100980;;;;
2022/11/20 06:14:00;;;;;;;4.8;4.7;;;;;;;-2.1;100.0;100980;;;;
2022/11/20 06:15:00;;;;;;;4.8;4.7;;;;;;;-2.2;100.0;100980;;;;
2022/11/20 06:16:00;;;;;;;4.3;4.2;;;;;;;-2.2;100.0;100980;;;;
2022/11/20 06:17:00;;;;;;;4.3;4.2;;;;;;;-2.1;100.0;100980;;;;
2022/11/20 06:18:00;;;;;;;4.3;4.2;;;;;;;-2.1;100.0;100980;;;;
2022/11/20 06:19:00;;;;;;;4.3;4.2;;;;;;;-2.1;100.0;100980;;;;
2022/11/20 06:20:00;;;;;;;4.3;4.2;;;;;;;-2.1;100.0;100980;;;;
2022/11/20 06:21:01;;;;;;;4.3;4.2;;;;;;;-2.0;100.0;100980;;;;
2022/11/20 06:22:00;;;;;;;4.3;4.2;;;;;;;-2.0;100.0;100980;;;;
2022/11/20 06:23:00;;;;;;;4.3;4.2;;;;;;;-2.0;100.0;100970;;;;
2022/11/20 06:24:00;;;;;;;4.3;4.2;;;;;;;-2.0;100.0;100970;;;;
2022/11/20 06:25:00;;;;;;;4.3;4.2;;;;;;;-2.0;100.0;100980;;;;
2022/11/20 06:26:04;;;;;;;4.3;4.2;;;;;;;-2.0;100.0;100980;;;;
2022/11/20 06:27:00;;;;;;;4.3;4.2;;;;;;;-2.0;100.0;100980;;;;
2022/11/20 06:28:00;;;;;;;4.3;4.2;;;;;;;-2.0;100.0;100980;;;;